Time;durP1;ratioP1;P1;durP2;ratioP2;P2;SDS_P1;SDS_P2;PMS_P1;PMS_P2;Temp;Humidity;BMP_temperature;BMP_pressure;BME280_temperature;BME280_humidity;BME280_pressure;Samples;Min_cycle;Max_cycle;Signal;HPM_P1;HPM_P2
2021/08/12 00:00:54;;;;;;;7.90;5.13;;;19.80;60.90;;;;;;5053439;28;20163;-82
2021/08/12 00:03:20;;;;;;;7.63;5.07;;;19.90;59.70;;;;;;5053925;28;20180;-80
2021/08/12 00:05:46;;;;;;;8.80;5.27;;;19.70;60.00;;;;;;5053650;28;20179;-82
2021/08/12 00:08:11;;;;;;;7.00;4.70;;;19.50;63.60;;;;;;5054092;28;20179;-80
2021/08/12 00:10:37;;;;;;;9.97;5.63;;;19.40;66.20;;;;;;5054022;28;20317;-82
2021/08/12 00:13:03;;;;;;;10.27;5.40;;;19.40;64.70;;;;;;5053945;28;20188;-79
2021/08/12 00:15:28;;;;;;;7.93;5.70;;;19.40;65.20;;;;;;5053793;28;20532;-81
2021/08/12 00:17:54;;;;;;;8.20;5.07;;;19.40;65.30;;;;;;5053758;28;20191;-81
2021/08/12 00:20:20;;;;;;;6.53;5.20;;;19.30;69.20;;;;;;5053464;28;20282;-82
2021/08/12 00:22:45;;;;;;;7.50;5.70;;;19.20;72.20;;;;;;5053832;28;20193;-81
2021/08/12 00:25:11;;;;;;;7.13;5.20;;;19.10;74.90;;;;;;5053698;28;20165;-81
2021/08/12 00:27:37;;;;;;;6.60;4.97;;;19.10;74.50;;;;;;5053321;28;20552;-78
2021/08/12 00:30:03;;;;;;;7.47;5.10;;;19.10;74.70;;;;;;5052923;28;20229;-77
2021/08/12 00:32:29;;;;;;;8.40;5.60;;;19.10;72.60;;;;;;5053175;28;20185;-78
2021/08/12 00:34:55;;;;;;;5.67;4.60;;;19.00;74.60;;;;;;5053274;28;20175;-79
2021/08/12 00:37:20;;;;;;;7.47;5.13;;;19.00;76.00;;;;;;5053353;28;20170;-78
2021/08/12 00:39:46;;;;;;;6.97;5.53;;;19.10;76.20;;;;;;5052955;28;20208;-80
2021/08/12 00:42:12;;;;;;;8.53;5.10;;;19.10;75.00;;;;;;5053081;28;20179;-78
2021/08/12 00:44:37;;;;;;;7.07;5.13;;;19.30;70.00;;;;;;5052708;28;20542;-78
2021/08/12 00:47:04;;;;;;;7.57;5.07;;;19.40;66.00;;;;;;5052502;28;20308;-80
2021/08/12 00:49:30;;;;;;;7.97;5.40;;;19.50;64.60;;;;;;5053136;28;20218;-80
2021/08/12 00:51:55;;;;;;;9.03;5.53;;;19.50;60.00;;;;;;5053167;28;20575;-81
2021/08/12 00:54:21;;;;;;;8.03;5.07;;;19.50;61.20;;;;;;5053231;28;20257;-82
2021/08/12 00:56:49;;;;;;;7.33;5.20;;;19.40;64.10;;;;;;5053256;28;20179;-81
2021/08/12 00:59:14;;;;;;;7.57;5.10;;;19.30;66.00;;;;;;5051376;28;20263;-81
2021/08/12 01:01:40;;;;;;;6.67;4.77;;;19.10;67.50;;;;;;5052980;28;20206;-82
2021/08/12 01:04:06;;;;;;;6.47;4.47;;;19.30;67.50;;;;;;5053020;28;20174;-77
2021/08/12 01:06:50;;;;;;;6.97;5.27;;;19.20;66.10;;;;;;5052854;28;20191;-81
2021/08/12 01:09:27;;;;;;;6.53;5.17;;;19.10;68.30;;;;;;5052985;28;20180;-79
2021/08/12 01:11:59;;;;;;;7.90;5.60;;;19.10;69.40;;;;;;5052926;28;20680;-78
2021/08/12 01:15:02;;;;;;;8.93;5.70;;;19.10;71.10;;;;;;5052957;28;20268;-81
2021/08/12 01:17:35;;;;;;;6.97;4.93;;;19.10;69.60;;;;;;5053535;28;20170;-81
2021/08/12 01:20:06;;;;;;;8.20;5.30;;;19.10;70.40;;;;;;5058774;28;20721;-78
2021/08/12 01:22:41;;;;;;;8.17;5.93;;;19.10;70.50;;;;;;5042011;28;20222;-78
2021/08/12 01:25:12;;;;;;;8.70;5.57;;;19.20;67.60;;;;;;5056760;28;20524;-79
2021/08/12 01:27:42;;;;;;;5.50;4.83;;;19.10;66.90;;;;;;5053390;28;20465;-79
2021/08/12 01:30:15;;;;;;;8.57;5.40;;;18.90;72.30;;;;;;5054997;28;20177;-80
2021/08/12 01:33:11;;;;;;;7.00;5.43;;;18.70;77.30;;;;;;5063280;28;20165;-80
2021/08/12 01:35:38;;;;;;;7.17;5.43;;;18.70;78.10;;;;;;5063687;28;20174;-81
2021/08/12 01:38:39;;;;;;;8.83;5.40;;;18.70;77.00;;;;;;5056485;28;20236;-81
2021/08/12 01:41:06;;;;;;;8.33;5.10;;;18.60;79.30;;;;;;5054164;28;20188;-81
2021/08/12 01:43:33;;;;;;;9.93;6.00;;;18.60;81.20;;;;;;5054350;28;20247;-81
2021/08/12 01:46:01;;;;;;;9.37;5.30;;;18.60;82.10;;;;;;5051277;28;20772;-79
2021/08/12 01:48:29;;;;;;;9.33;5.67;;;18.60;80.80;;;;;;5052694;28;20536;-79
2021/08/12 01:50:56;;;;;;;8.30;5.50;;;18.60;82.00;;;;;;5052478;28;20249;-79
2021/08/12 01:53:22;;;;;;;6.63;5.00;;;18.70;82.00;;;;;;5052887;28;20174;-78
2021/08/12 01:55:49;;;;;;;8.47;5.43;;;18.70;76.10;;;;;;5055055;28;20208;-81
2021/08/12 01:58:17;;;;;;;7.63;5.60;;;18.70;75.30;;;;;;5076648;28;20265;-77
2021/08/12 02:00:47;;;;;;;8.03;5.20;;;18.80;74.10;;;;;;5077261;28;20166;-80
2021/08/12 02:03:14;;;;;;;8.37;5.17;;;18.70;73.90;;;;;;5066821;28;20653;-80
2021/08/12 02:05:43;;;;;;;10.17;5.27;;;18.70;76.70;;;;;;5061599;28;20189;-78
2021/08/12 02:08:10;;;;;;;8.40;5.13;;;18.70;76.50;;;;;;5056009;28;20157;-79
2021/08/12 02:10:36;;;;;;;7.63;5.40;;;18.70;74.90;;;;;;5055803;28;20595;-80
2021/08/12 02:13:02;;;;;;;8.97;5.90;;;18.80;74.00;;;;;;5055843;28;20707;-78
2021/08/12 02:15:28;;;;;;;7.10;5.50;;;18.80;73.90;;;;;;5055999;28;20169;-81
2021/08/12 02:17:54;;;;;;;7.33;5.27;;;18.80;73.80;;;;;;5055812;28;20231;-81
2021/08/12 02:20:20;;;;;;;6.50;5.07;;;18.80;73.70;;;;;;5055922;28;20208;-80
2021/08/12 02:23:07;;;;;;;7.07;5.63;;;18.70;75.80;;;;;;5056218;28;20168;-80
2021/08/12 02:25:51;;;;;;;7.33;5.13;;;18.60;77.90;;;;;;5055213;28;20177;-80
2021/08/12 02:28:17;;;;;;;7.33;5.63;;;18.70;78.40;;;;;;5055498;28;20169;-79
2021/08/12 02:30:46;;;;;;;6.83;5.57;;;18.80;76.60;;;;;;5055684;28;20184;-81
2021/08/12 02:33:15;;;;;;;9.53;5.43;;;18.90;73.70;;;;;;5055671;28;20180;-79
2021/08/12 02:35:42;;;;;;;6.63;5.43;;;18.90;70.20;;;;;;5054432;28;20532;-81
2021/08/12 02:38:12;;;;;;;9.63;5.33;;;18.90;69.70;;;;;;5056742;28;20399;-81
2021/08/12 02:40:38;;;;;;;8.17;5.23;;;19.00;69.90;;;;;;5055111;28;20169;-79
2021/08/12 02:43:05;;;;;;;6.67;5.50;;;19.10;69.20;;;;;;5055344;28;20173;-80
2021/08/12 02:45:33;;;;;;;7.67;5.40;;;19.00;69.10;;;;;;5055572;28;20215;-79
2021/08/12 02:48:00;;;;;;;9.13;5.60;;;19.10;68.70;;;;;;5057660;28;20296;-79
2021/08/12 02:50:27;;;;;;;7.83;5.80;;;19.10;68.20;;;;;;5056378;28;20184;-80
2021/08/12 02:52:53;;;;;;;9.27;6.03;;;19.20;66.60;;;;;;5057131;28;20192;-78
2021/08/12 02:55:19;;;;;;;9.13;5.90;;;19.10;66.20;;;;;;5055858;28;20180;-81
2021/08/12 02:57:45;;;;;;;7.80;5.57;;;19.20;64.80;;;;;;5056529;28;20173;-80
2021/08/12 03:00:12;;;;;;;7.37;5.67;;;19.10;63.10;;;;;;5056424;28;20189;-80
2021/08/12 03:02:42;;;;;;;9.53;5.97;;;19.10;59.80;;;;;;5057321;28;20173;-81
2021/08/12 03:05:09;;;;;;;10.83;6.07;;;19.10;61.40;;;;;;5057012;28;20243;-81
2021/08/12 03:07:36;;;;;;;8.07;5.57;;;19.10;60.30;;;;;;5057818;28;20203;-77
2021/08/12 03:10:02;;;;;;;6.33;5.50;;;19.10;61.20;;;;;;5056034;28;20169;-77
2021/08/12 03:12:29;;;;;;;6.20;5.60;;;18.90;64.40;;;;;;5058981;28;20518;-77
2021/08/12 03:14:55;;;;;;;7.73;5.90;;;18.70;70.40;;;;;;5059236;28;20315;-77
2021/08/12 03:17:23;;;;;;;6.60;5.73;;;18.70;72.80;;;;;;5058670;28;20182;-82
2021/08/12 03:19:50;;;;;;;7.77;6.30;;;18.90;72.70;;;;;;5056822;28;20218;-81
2021/08/12 03:22:16;;;;;;;8.00;5.60;;;18.90;70.10;;;;;;5057481;28;20171;-82
2021/08/12 03:24:45;;;;;;;9.83;5.90;;;18.90;69.00;;;;;;5054454;28;20319;-80
2021/08/12 03:27:12;;;;;;;7.57;5.33;;;18.90;70.50;;;;;;5054794;28;20191;-80
2021/08/12 03:29:42;;;;;;;7.67;5.53;;;18.80;71.90;;;;;;5054550;28;20169;-82
2021/08/12 03:32:08;;;;;;;9.83;5.90;;;18.90;71.30;;;;;;5054607;28;20215;-81
2021/08/12 03:34:35;;;;;;;6.63;5.20;;;18.90;70.80;;;;;;5054489;28;20645;-80
2021/08/12 03:37:01;;;;;;;7.33;5.23;;;19.00;70.80;;;;;;5054459;28;20633;-81
2021/08/12 03:39:29;;;;;;;8.20;5.63;;;19.00;69.90;;;;;;5054501;28;20598;-82
2021/08/12 03:41:55;;;;;;;8.43;5.77;;;19.10;67.10;;;;;;5062615;28;20201;-80
2021/08/12 03:44:20;;;;;;;7.70;5.53;;;19.20;64.50;;;;;;5056983;28;20169;-80
2021/08/12 03:46:46;;;;;;;6.83;5.33;;;19.00;66.00;;;;;;5054631;28;20183;-81
2021/08/12 03:49:12;;;;;;;8.57;5.60;;;18.90;68.40;;;;;;5054295;28;20673;-79
2021/08/12 03:51:37;;;;;;;8.80;5.40;;;19.00;69.00;;;;;;5053707;28;20435;-78
2021/08/12 03:54:03;;;;;;;9.53;5.63;;;19.00;68.70;;;;;;5054081;28;20552;-80
2021/08/12 03:56:29;;;;;;;7.80;6.00;;;19.00;67.90;;;;;;5054029;28;20504;-78
2021/08/12 03:58:55;;;;;;;7.10;6.20;;;19.00;68.30;;;;;;5053689;28;20212;-78
2021/08/12 04:01:21;;;;;;;9.80;5.77;;;18.90;69.70;;;;;;5053922;28;20181;-77
2021/08/12 04:03:47;;;;;;;8.87;5.63;;;18.80;73.70;;;;;;5053639;28;20574;-77
2021/08/12 04:06:13;;;;;;;7.33;5.57;;;18.60;77.40;;;;;;5053293;28;20176;-78
2021/08/12 04:08:38;;;;;;;8.17;5.73;;;18.70;77.20;;;;;;5054203;28;20173;-77
2021/08/12 04:11:04;;;;;;;9.17;5.87;;;18.70;76.00;;;;;;5055441;28;20231;-78
2021/08/12 04:13:30;;;;;;;8.70;7.27;;;18.70;77.00;;;;;;5053748;28;20319;-77
2021/08/12 04:15:56;;;;;;;8.93;6.70;;;18.70;75.80;;;;;;5053698;28;20176;-77
2021/08/12 04:18:22;;;;;;;10.83;6.60;;;18.80;73.80;;;;;;5035694;28;20211;-78
2021/08/12 04:20:48;;;;;;;9.93;5.93;;;18.70;76.90;;;;;;5035479;28;20170;-77
2021/08/12 04:23:14;;;;;;;8.83;6.47;;;18.30;82.70;;;;;;5052998;28;20167;-79
2021/08/12 04:25:41;;;;;;;11.47;6.30;;;18.10;86.60;;;;;;5073022;28;20168;-76
2021/08/12 04:28:07;;;;;;;9.40;6.10;;;18.10;88.50;;;;;;5076598;28;20162;-77
2021/08/12 04:30:33;;;;;;;9.57;6.17;;;18.00;89.10;;;;;;5075922;28;20161;-77
2021/08/12 04:32:58;;;;;;;8.63;6.50;;;18.20;85.70;;;;;;5075829;28;20204;-79
2021/08/12 04:35:24;;;;;;;9.10;6.63;;;18.30;84.60;;;;;;5058652;28;20173;-80
2021/08/12 04:37:50;;;;;;;9.57;7.00;;;18.40;82.30;;;;;;5055133;28;20295;-77
2021/08/12 04:40:18;;;;;;;12.10;6.97;;;18.30;81.50;;;;;;5055251;28;20180;-78
2021/08/12 04:42:47;;;;;;;10.53;7.63;;;18.40;80.00;;;;;;5055152;28;20170;-78
2021/08/12 04:45:13;;;;;;;11.10;6.77;;;18.30;80.30;;;;;;5077746;28;20184;-76
2021/08/12 04:47:39;;;;;;;7.80;6.63;;;18.10;82.30;;;;;;5069563;28;20180;-79
2021/08/12 04:50:06;;;;;;;8.77;6.47;;;18.00;86.40;;;;;;5061874;28;20165;-80
2021/08/12 04:52:32;;;;;;;7.50;6.30;;;17.80;87.30;;;;;;5053912;28;20173;-80
2021/08/12 04:54:58;;;;;;;9.43;6.90;;;18.10;81.70;;;;;;5053246;28;20149;-77
2021/08/12 04:57:23;;;;;;;9.17;7.07;;;18.00;81.40;;;;;;5051993;28;20268;-77
2021/08/12 04:59:49;;;;;;;7.50;6.70;;;18.00;83.20;;;;;;5053468;28;20215;-78
2021/08/12 05:02:15;;;;;;;9.37;6.50;;;18.00;84.00;;;;;;5053422;28;20634;-78
2021/08/12 05:04:41;;;;;;;10.23;7.00;;;18.00;84.60;;;;;;5061132;28;20172;-78
2021/08/12 05:07:06;;;;;;;11.67;6.63;;;17.90;86.50;;;;;;5077019;28;20197;-77
2021/08/12 05:09:32;;;;;;;9.47;6.77;;;17.90;88.60;;;;;;5070449;28;20173;-81
2021/08/12 05:12:00;;;;;;;11.70;6.73;;;18.00;89.70;;;;;;5060523;28;20180;-79
2021/08/12 05:14:26;;;;;;;9.33;6.80;;;18.00;90.10;;;;;;5054352;28;20214;-79
2021/08/12 05:16:52;;;;;;;8.70;6.60;;;18.20;86.70;;;;;;5053342;28;20251;-78
2021/08/12 05:19:17;;;;;;;11.90;6.80;;;18.40;84.70;;;;;;5053026;28;20205;-80
2021/08/12 05:21:43;;;;;;;12.67;6.80;;;18.60;82.70;;;;;;5052172;28;20575;-77
2021/08/12 05:24:09;;;;;;;14.53;7.33;;;18.60;80.80;;;;;;5064439;28;20199;-78
2021/08/12 05:26:34;;;;;;;10.50;5.97;;;18.60;80.40;;;;;;5077452;28;20193;-77
2021/08/12 05:29:00;;;;;;;13.60;7.10;;;18.80;78.90;;;;;;5077403;28;20184;-79
2021/08/12 05:31:26;;;;;;;10.03;6.83;;;18.60;77.20;;;;;;5059747;28;20540;-77
2021/08/12 05:33:51;;;;;;;9.80;7.17;;;18.60;78.80;;;;;;5078637;28;20173;-77
2021/08/12 05:36:17;;;;;;;15.23;7.33;;;18.70;76.10;;;;;;5074844;28;20589;-77
2021/08/12 05:38:43;;;;;;;12.87;7.77;;;18.90;70.20;;;;;;5059908;28;20200;-80
2021/08/12 05:41:09;;;;;;;10.67;7.60;;;18.90;65.60;;;;;;5058362;28;20173;-81
2021/08/12 05:43:34;;;;;;;12.57;8.50;;;18.90;67.00;;;;;;5059847;28;20169;-81
2021/08/12 05:46:00;;;;;;;16.17;8.83;;;18.80;67.60;;;;;;5059901;28;20188;-80
2021/08/12 05:48:26;;;;;;;13.47;8.47;;;18.80;68.50;;;;;;5059176;28;20165;-82
2021/08/12 05:50:51;;;;;;;14.30;8.23;;;18.90;69.00;;;;;;5058030;28;20649;-81
2021/08/12 05:53:19;;;;;;;11.57;8.50;;;18.70;74.80;;;;;;5058167;28;20637;-80
2021/08/12 05:55:45;;;;;;;11.23;7.50;;;18.50;79.30;;;;;;5043878;28;20173;-80
2021/08/12 05:58:17;;;;;;;12.97;8.07;;;18.50;80.90;;;;;;5059292;28;20209;-79
2021/08/12 06:00:43;;;;;;;10.33;7.33;;;18.60;81.30;;;;;;5058449;28;20157;-81
2021/08/12 06:03:11;;;;;;;13.73;7.97;;;18.70;79.40;;;;;;5059084;28;20166;-81
2021/08/12 06:05:37;;;;;;;19.23;8.73;;;18.90;77.40;;;;;;5058613;28;20169;-80
2021/08/12 06:08:04;;;;;;;14.70;8.33;;;19.00;75.30;;;;;;5059156;28;20199;-81
2021/08/12 06:10:31;;;;;;;14.57;8.23;;;19.10;74.10;;;;;;5057823;28;20261;-81
2021/08/12 06:12:57;;;;;;;13.17;8.17;;;19.10;72.60;;;;;;5056186;28;20174;-84
2021/08/12 06:15:23;;;;;;;11.13;8.60;;;19.20;71.50;;;;;;5056027;28;20182;-81
2021/08/12 06:17:49;;;;;;;15.77;9.63;;;19.30;70.20;;;;;;5037877;28;20176;-78
2021/08/12 06:20:16;;;;;;;12.33;9.00;;;19.30;67.50;;;;;;5055815;28;20184;-79
2021/08/12 06:22:41;;;;;;;9.93;8.03;;;19.40;65.40;;;;;;5056322;28;20169;-81
2021/08/12 06:25:08;;;;;;;12.63;8.40;;;19.30;66.30;;;;;;5055993;28;20167;-80
2021/08/12 06:27:33;;;;;;;10.90;7.67;;;19.20;67.50;;;;;;5055777;28;20273;-81
2021/08/12 06:29:59;;;;;;;11.43;7.67;;;19.10;69.40;;;;;;5056010;28;20249;-82
2021/08/12 06:32:27;;;;;;;13.70;7.80;;;19.20;68.30;;;;;;5055439;28;20249;-80
2021/08/12 06:34:53;;;;;;;13.97;7.70;;;19.30;69.10;;;;;;5056040;28;20163;-80
2021/08/12 06:37:18;;;;;;;12.77;8.53;;;19.40;62.20;;;;;;5054702;28;20177;-80
2021/08/12 06:39:44;;;;;;;16.00;8.47;;;19.70;54.90;;;;;;5056078;28;20589;-80
2021/08/12 06:42:10;;;;;;;12.23;8.13;;;19.80;49.40;;;;;;5055787;28;20526;-82
2021/08/12 06:44:35;;;;;;;12.03;7.87;;;19.90;52.10;;;;;;5055395;28;20185;-81
2021/08/12 06:47:01;;;;;;;14.27;8.00;;;19.90;52.10;;;;;;5055401;28;20572;-81
2021/08/12 06:49:27;;;;;;;14.27;8.70;;;19.80;56.70;;;;;;5055741;28;20704;-80
2021/08/12 06:51:53;;;;;;;14.37;8.27;;;19.90;55.90;;;;;;5055149;28;20506;-79
2021/08/12 06:54:18;;;;;;;14.40;8.57;;;20.10;51.90;;;;;;5037589;28;20547;-82
2021/08/12 06:56:44;;;;;;;16.00;8.60;;;20.00;53.20;;;;;;5055555;28;20216;-80
2021/08/12 06:59:10;;;;;;;17.43;9.80;;;20.10;52.00;;;;;;5055231;28;20635;-83
2021/08/12 07:01:35;;;;;;;18.30;10.93;;;20.10;48.40;;;;;;5053930;28;20179;-82
2021/08/12 07:04:01;;;;;;;16.63;9.50;;;20.20;49.60;;;;;;5055699;28;20175;-82
2021/08/12 07:06:27;;;;;;;16.77;8.63;;;20.20;46.40;;;;;;5055398;28;20199;-83
2021/08/12 07:08:54;;;;;;;11.67;8.07;;;20.30;46.30;;;;;;5055405;28;20172;-80
2021/08/12 07:11:21;;;;;;;12.90;7.53;;;20.40;41.30;;;;;;5037918;28;20279;-81
2021/08/12 07:13:46;;;;;;;17.77;8.17;;;20.60;39.40;;;;;;5037109;28;20528;-81
2021/08/12 07:16:14;;;;;;;12.20;8.07;;;20.80;34.60;;;;;;5054761;28;20231;-80
2021/08/12 07:18:44;;;;;;;11.20;7.77;;;20.90;29.80;;;;;;5053202;28;20229;-80
2021/08/12 07:21:17;;;;;;;11.87;8.03;;;20.90;27.20;;;;;;5054668;28;20208;-81
2021/08/12 07:23:45;;;;;;;12.57;8.53;;;21.00;26.90;;;;;;5054473;28;20174;-78
2021/08/12 07:26:14;;;;;;;11.77;7.73;;;20.90;28.60;;;;;;5054861;28;20185;-78
2021/08/12 07:28:41;;;;;;;15.53;8.33;;;20.90;24.10;;;;;;5054314;28;20197;-78
2021/08/12 07:31:12;;;;;;;13.47;8.47;;;21.20;18.30;;;;;;5054747;28;20176;-77
2021/08/12 07:33:38;;;;;;;14.63;7.97;;;21.20;14.90;;;;;;5056697;28;20584;-78
2021/08/12 07:36:05;;;;;;;12.43;7.97;;;21.20;18.60;;;;;;5054362;28;20242;-80
2021/08/12 07:38:32;;;;;;;10.57;8.00;;;21.20;11.60;;;;;;5054325;28;20206;-80
2021/08/12 07:40:58;;;;;;;13.20;7.43;;;21.30;7.40;;;;;;5054446;28;20167;-81
2021/08/12 07:43:25;;;;;;;11.27;7.47;;;21.20;14.70;;;;;;5036677;28;20252;-80
2021/08/12 07:45:51;;;;;;;9.13;7.00;;;21.40;15.70;;;;;;5053690;28;20187;-78
2021/08/12 07:48:17;;;;;;;8.57;6.93;;;21.50;1.00;;;;;;5037262;28;20173;-80
2021/08/12 07:50:43;;;;;;;13.00;7.77;;;21.60;1.00;;;;;;5075135;28;20199;-79
2021/08/12 07:53:09;;;;;;;12.97;7.53;;;21.70;1.00;;;;;;5068355;28;20268;-78
2021/08/12 07:55:35;;;;;;;12.93;7.70;;;21.80;1.00;;;;;;5059759;28;20184;-82
2021/08/12 07:58:01;;;;;;;11.57;7.17;;;21.90;1.00;;;;;;5055069;28;20164;-80
2021/08/12 08:00:26;;;;;;;11.53;6.97;;;21.90;1.00;;;;;;5054342;28;20191;-77
2021/08/12 08:02:53;;;;;;;13.30;8.30;;;21.80;1.00;;;;;;5054181;28;20253;-79
2021/08/12 08:05:21;;;;;;;12.20;7.13;;;21.80;1.00;;;;;;5054207;28;20224;-79
2021/08/12 08:07:47;;;;;;;13.83;7.80;;;21.80;1.00;;;;;;5056215;28;20160;-79
2021/08/12 08:10:14;;;;;;;12.67;8.47;;;21.90;1.00;;;;;;5058883;28;20179;-78
2021/08/12 08:12:41;;;;;;;13.33;8.33;;;21.70;1.00;;;;;;5074154;28;20159;-78
2021/08/12 08:15:10;;;;;;;14.63;8.13;;;21.60;1.00;;;;;;5067927;28;20170;-79
2021/08/12 08:17:36;;;;;;;13.50;8.13;;;21.50;5.20;;;;;;5059417;28;20230;-79
2021/08/12 08:20:03;;;;;;;10.83;7.93;;;21.50;1.00;;;;;;5055942;28;20246;-79
2021/08/12 08:22:29;;;;;;;9.90;7.57;;;21.50;1.00;;;;;;5054015;28;20167;-83
2021/08/12 08:24:54;;;;;;;12.43;7.73;;;21.50;1.20;;;;;;5052521;28;20182;-79
2021/08/12 08:27:20;;;;;;;9.87;7.33;;;21.50;1.70;;;;;;5053520;28;20198;-82
2021/08/12 08:29:46;;;;;;;11.40;7.80;;;21.60;1.50;;;;;;5053395;28;20191;-78
2021/08/12 08:32:11;;;;;;;13.60;7.30;;;21.70;1.00;;;;;;5053699;28;20236;-78
2021/08/12 08:34:37;;;;;;;11.10;7.73;;;21.80;1.00;;;;;;5053909;28;20172;-78
2021/08/12 08:37:03;;;;;;;8.53;7.17;;;21.90;1.00;;;;;;5053719;28;20196;-79
2021/08/12 08:39:29;;;;;;;12.23;7.77;;;22.00;1.00;;;;;;5053485;28;20289;-77
2021/08/12 08:41:55;;;;;;;11.47;7.77;;;22.10;1.00;;;;;;5052865;28;20170;-81
2021/08/12 08:44:21;;;;;;;12.23;7.97;;;22.20;1.00;;;;;;5053976;28;20168;-79
2021/08/12 08:46:48;;;;;;;13.90;8.23;;;22.30;1.00;;;;;;5053603;28;20176;-81
2021/08/12 08:49:17;;;;;;;11.80;8.10;;;22.40;1.00;;;;;;5053482;28;20176;-84
2021/08/12 08:51:44;;;;;;;12.67;8.13;;;22.30;1.00;;;;;;5053342;28;20161;-82
2021/08/12 08:54:11;;;;;;;10.73;7.93;;;22.30;1.00;;;;;;5053098;28;20176;-80
2021/08/12 08:56:40;;;;;;;11.43;7.60;;;22.20;1.00;;;;;;5052787;28;20169;-83
2021/08/12 08:59:07;;;;;;;12.40;7.57;;;22.20;1.00;;;;;;5053182;28;20209;-82
2021/08/12 09:01:34;;;;;;;12.03;7.97;;;22.30;1.00;;;;;;5053079;28;20260;-82
2021/08/12 09:04:00;;;;;;;12.37;8.47;;;22.40;1.00;;;;;;5053081;28;20593;-82
2021/08/12 09:06:26;;;;;;;15.27;8.00;;;22.40;1.00;;;;;;5035463;28;20280;-81
2021/08/12 09:08:55;;;;;;;13.63;8.70;;;22.50;1.00;;;;;;5054477;28;20166;-80
2021/08/12 09:11:21;;;;;;;13.83;8.90;;;22.60;1.00;;;;;;5056735;28;20183;-79
2021/08/12 09:13:47;;;;;;;16.20;8.93;;;22.60;1.00;;;;;;5057501;28;20204;-79
2021/08/12 09:16:33;;;;;;;11.30;7.80;;;22.70;1.00;;;;;;5057353;28;20182;-80
2021/08/12 09:19:22;;;;;;;11.90;7.93;;;22.70;1.00;;;;;;5058258;28;20212;-81
2021/08/12 09:21:52;;;;;;;12.63;8.30;;;22.70;1.00;;;;;;5039381;28;20187;-82
2021/08/12 09:24:18;;;;;;;13.37;8.17;;;22.70;1.00;;;;;;5058110;28;20170;-82
2021/08/12 09:26:45;;;;;;;11.10;8.00;;;22.80;1.00;;;;;;5057889;28;20191;-81
2021/08/12 09:29:24;;;;;;;18.37;11.47;;;23.00;1.00;;;;;;5059259;28;20176;-78
2021/08/12 09:31:59;;;;;;;12.13;7.87;;;23.00;1.00;;;;;;5063464;28;20162;-79
2021/08/12 09:34:38;;;;;;;14.63;8.40;;;23.10;1.00;;;;;;5061588;28;20167;-81
2021/08/12 09:37:05;;;;;;;11.53;7.90;;;23.20;1.00;;;;;;5058963;28;20167;-84
2021/08/12 09:39:31;;;;;;;12.03;8.30;;;23.30;1.00;;;;;;5039254;28;20218;-81
2021/08/12 09:41:57;;;;;;;13.23;8.30;;;23.20;1.00;;;;;;5058631;28;20167;-83
2021/08/12 09:44:44;;;;;;;10.60;7.73;;;23.30;1.00;;;;;;5061113;28;20171;-81
2021/08/12 09:47:15;;;;;;;16.20;8.67;;;23.40;1.00;;;;;;5042107;28;20495;-80
2021/08/12 09:49:50;;;;;;;14.30;9.53;;;23.30;1.00;;;;;;5060772;28;20221;-83
2021/08/12 09:52:17;;;;;;;13.87;8.93;;;23.30;1.00;;;;;;5058751;28;20194;-80
2021/08/12 09:54:44;;;;;;;14.17;9.67;;;23.50;1.00;;;;;;5057080;28;20225;-78
2021/08/12 09:57:17;;;;;;;13.73;9.47;;;23.50;1.00;;;;;;5059780;28;20180;-81
2021/08/12 09:59:50;;;;;;;14.40;10.07;;;23.60;1.00;;;;;;5057052;28;20256;-82
2021/08/12 10:02:16;;;;;;;13.23;9.77;;;23.30;1.00;;;;;;5057497;28;20168;-83
2021/08/12 10:04:43;;;;;;;15.90;10.27;;;23.30;1.00;;;;;;5058401;28;20200;-80
2021/08/12 10:07:28;;;;;;;13.00;10.00;;;23.40;1.00;;;;;;5057532;28;20255;-82
2021/08/12 10:09:54;;;;;;;14.57;10.43;;;23.60;1.00;;;;;;5057079;28;20178;-82
2021/08/12 10:12:33;;;;;;;15.30;9.63;;;23.80;1.00;;;;;;5057380;28;20184;-81
2021/08/12 10:14:59;;;;;;;13.33;9.80;;;24.10;1.00;;;;;;5057931;28;20221;-81
2021/08/12 10:17:25;;;;;;;12.90;9.70;;;24.10;1.00;;;;;;5040105;28;20652;-80
2021/08/12 10:19:52;;;;;;;16.03;9.67;;;24.20;1.00;;;;;;5056180;28;20200;-80
2021/08/12 10:22:18;;;;;;;15.83;10.00;;;24.40;1.00;;;;;;5055930;28;20273;-83
2021/08/12 10:24:45;;;;;;;13.73;9.93;;;24.60;1.00;;;;;;5056398;28;20180;-82
2021/08/12 10:27:14;;;;;;;12.43;9.37;;;24.70;1.00;;;;;;5039010;28;20206;-81
2021/08/12 10:29:43;;;;;;;12.67;9.30;;;24.80;1.00;;;;;;5056372;28;20536;-83
2021/08/12 10:32:14;;;;;;;12.30;8.73;;;24.90;1.00;;;;;;5060376;28;20169;-80
2021/08/12 10:34:40;;;;;;;12.47;7.77;;;25.10;1.00;;;;;;5064925;28;20168;-81
2021/08/12 10:37:06;;;;;;;13.80;7.40;;;25.30;1.00;;;;;;5060514;28;20176;-79
2021/08/12 10:39:32;;;;;;;9.90;6.57;;;25.60;1.00;;;;;;5056134;28;20704;-82
2021/08/12 10:41:57;;;;;;;9.47;6.83;;;25.80;1.00;;;;;;5056561;28;20176;-81
2021/08/12 10:44:24;;;;;;;10.23;5.77;;;26.00;1.00;;;;;;5055757;28;20176;-82
2021/08/12 10:46:50;;;;;;;10.67;5.80;;;26.10;1.00;;;;;;5055949;28;20172;-83
2021/08/12 10:49:34;;;;;;;10.67;5.80;;;26.10;1.00;;;;;;5056165;28;20180;-82
2021/08/12 10:52:08;;;;;;;8.67;5.57;;;26.20;1.00;;;;;;5055206;28;20172;-81
2021/08/12 10:54:36;;;;;;;11.30;6.17;;;26.40;99.90;;;;;;5056589;28;20326;-80
2021/08/12 10:57:22;;;;;;;6.87;5.03;;;26.60;99.90;;;;;;5056525;28;20165;-80
2021/08/12 10:59:50;;;;;;;9.70;4.57;;;26.50;99.90;;;;;;5038511;28;20212;-81
2021/08/12 11:02:31;;;;;;;8.20;4.80;;;26.50;99.90;;;;;;5066674;28;20158;-78
2021/08/12 11:04:59;;;;;;;9.03;4.53;;;26.70;99.00;;;;;;5077618;28;20188;-81
2021/08/12 11:07:40;;;;;;;7.20;4.70;;;26.50;99.90;;;;;;5063702;28;20668;-82
2021/08/12 11:10:07;;;;;;;10.33;4.83;;;26.40;99.90;;;;;;5058494;28;20178;-81
2021/08/12 11:12:58;;;;;;;9.30;4.73;;;26.30;99.90;;;;;;5058156;28;20180;-78
2021/08/12 11:15:40;;;;;;;10.20;5.13;;;26.10;99.90;;;;;;5055896;28;20244;-80
2021/08/12 11:18:11;;;;;;;7.50;4.53;;;26.10;99.90;;;;;;5056710;28;20676;-79
2021/08/12 11:20:39;;;;;;;8.97;4.93;;;26.00;99.90;;;;;;5055631;28;20184;-81
2021/08/12 11:23:34;;;;;;;10.67;5.97;;;25.90;99.90;;;;;;5055611;28;20246;-82
2021/08/12 11:26:06;;;;;;;8.47;4.80;;;25.80;1.00;;;;;;5050420;28;20215;-78
2021/08/12 11:28:41;;;;;;;7.93;4.90;;;25.80;99.90;;;;;;5068565;28;20165;-80
2021/08/12 11:31:07;;;;;;;7.83;4.40;;;25.90;99.90;;;;;;5063449;28;20172;-82
2021/08/12 11:33:53;;;;;;;10.60;4.63;;;26.00;99.90;;;;;;5058355;28;20188;-79
2021/08/12 11:36:26;;;;;;;8.60;4.47;;;26.20;99.90;;;;;;5055221;28;20177;-82
2021/08/12 11:39:09;;;;;;;8.70;4.17;;;26.60;99.90;;;;;;5054835;28;20200;-82
2021/08/12 11:41:44;;;;;;;10.03;4.77;;;26.80;1.00;;;;;;5055211;28;20237;-81
2021/08/12 11:44:15;;;;;;;10.40;5.50;;;27.10;1.00;;;;;;5056656;28;20586;-82
2021/08/12 11:46:42;;;;;;;10.80;4.87;;;27.40;1.00;;;;;;5057747;28;20360;-82
2021/08/12 11:49:13;;;;;;;10.40;5.00;;;27.60;1.00;;;;;;5057287;28;20256;-79
2021/08/12 11:51:39;;;;;;;11.13;4.93;;;27.70;99.90;;;;;;5056847;28;20165;-82
2021/08/12 11:54:05;;;;;;;7.97;4.93;;;27.60;99.90;;;;;;5037182;28;20302;-79
2021/08/12 11:56:37;;;;;;;7.33;4.60;;;27.20;1.00;;;;;;5059307;28;20314;-84
2021/08/12 11:59:03;;;;;;;9.17;4.53;;;27.10;1.00;;;;;;5040351;28;20212;-80
2021/08/12 12:01:34;;;;;;;6.80;4.87;;;27.00;1.00;;;;;;5055556;28;20184;-82
2021/08/12 12:04:05;;;;;;;11.00;4.93;;;27.00;99.90;;;;;;5055209;28;20174;-81
2021/08/12 12:06:35;;;;;;;7.10;4.40;;;27.10;1.00;;;;;;5054470;28;20167;-81
2021/08/12 12:09:31;;;;;;;5.83;4.40;;;27.10;96.70;;;;;;5054565;28;20196;-80
2021/08/12 12:12:00;;;;;;;7.83;4.30;;;27.10;99.90;;;;;;5054102;28;20183;-83
2021/08/12 12:14:31;;;;;;;6.93;4.77;;;27.00;1.00;;;;;;5054007;28;20210;-83
2021/08/12 12:17:07;;;;;;;6.27;4.53;;;26.80;1.00;;;;;;5053859;28;20165;-81
2021/08/12 12:19:33;;;;;;;7.07;4.40;;;26.90;1.00;;;;;;5053906;28;20676;-81
2021/08/12 12:21:58;;;;;;;6.77;4.50;;;27.00;1.00;;;;;;5054034;28;20187;-82
2021/08/12 12:24:24;;;;;;;7.30;5.20;;;27.00;99.90;;;;;;5053875;28;20184;-80
2021/08/12 12:26:57;;;;;;;9.00;5.53;;;26.80;1.00;;;;;;5053814;28;20197;-82
2021/08/12 12:29:24;;;;;;;8.27;5.73;;;26.60;39.50;;;;;;5054219;28;20169;-82
2021/08/12 12:32:01;;;;;;;8.27;5.83;;;26.50;99.90;;;;;;5036349;28;20269;-82
2021/08/12 12:34:27;;;;;;;8.50;6.10;;;26.40;99.90;;;;;;5053825;28;20175;-81
2021/08/12 12:36:53;;;;;;;10.97;6.07;;;26.50;99.90;;;;;;5054198;28;20196;-82
2021/08/12 12:39:20;;;;;;;7.97;5.80;;;26.40;99.90;;;;;;5054214;28;20235;-83
2021/08/12 12:41:47;;;;;;;10.57;7.03;;;26.40;99.90;;;;;;5055105;28;20165;-79
2021/08/12 12:44:14;;;;;;;11.13;6.67;;;26.40;99.90;;;;;;5036374;28;20203;-81
2021/08/12 12:46:41;;;;;;;8.07;6.67;;;26.30;1.00;;;;;;5055235;28;20208;-84
2021/08/12 12:49:27;;;;;;;9.27;6.23;;;26.20;1.00;;;;;;5053986;28;20204;-82
2021/08/12 12:52:03;;;;;;;10.07;5.80;;;26.30;1.00;;;;;;5057274;28;20187;-80